Time;durP1;ratioP1;P1;durP2;ratioP2;P2;SDS_P1;SDS_P2;PMS_P1;PMS_P2;Temp;Humidity;BMP_temperature;BMP_pressure;BME280_temperature;BME280_humidity;BME280_pressure;Samples;Min_cycle;Max_cycle;Signal;HPM_P1;HPM_P2
2024/01/03 00:00:44;;;;;;;;;;;;;;;9.70;78.82;98047.31;4957129;28;19968;-75
2024/01/03 00:03:11;;;;;;;;;;;;;;;9.67;79.10;98069.31;4968938;28;19922;-75
2024/01/03 00:05:37;;;;;;;;;;;;;;;9.68;79.19;98067.47;4972077;28;19929;-74
2024/01/03 00:08:05;;;;;;;;;;;;;;;9.64;79.31;98083.25;4988739;28;19914;-74
2024/01/03 00:10:49;;;;;;;;;;;;;;;9.70;79.28;98066.13;4972254;28;19918;-74
2024/01/03 00:13:32;;;;;;;;;;;;;;;9.60;79.66;98076.00;4973635;28;19925;-74
2024/01/03 00:16:07;;;;;;;;;;;;;;;9.59;80.08;98080.56;4975134;28;19972;-74
2024/01/03 00:18:32;;;;;;;;;;;;;;;9.59;79.79;98106.59;4965848;28;20021;-72
2024/01/03 00:20:57;;;;;;;;;;;;;;;9.64;79.24;98095.91;4974381;28;19986;-74
2024/01/03 00:23:23;;;;;;;;;;;;;;;9.65;78.76;98081.41;4974960;28;20287;-74
2024/01/03 00:25:48;;;;;;;;;;;;;;;9.62;79.53;98104.19;4957363;28;20307;-73
2024/01/03 00:28:13;;;;;;;;;;;;;;;9.61;79.47;98083.81;4975612;28;20603;-74
2024/01/03 00:30:38;;;;;;;;;;;;;;;9.68;79.23;98086.25;4974851;28;20529;-74
2024/01/03 00:33:04;;;;;;;;;;;;;;;9.56;80.04;98114.09;4956502;28;19926;-74
2024/01/03 00:35:29;;;;;;;;;;;;;;;9.51;80.69;98108.72;4956758;28;20382;-74
2024/01/03 00:37:54;;;;;;;;;;;;;;;9.56;79.97;98107.94;4974606;28;20358;-75
2024/01/03 00:40:31;;;;;;;;;;;;;;;9.57;79.48;98098.81;4976864;28;20378;-74
2024/01/03 00:42:57;;;;;;;;;;;;;;;9.54;80.01;98121.59;4974516;28;19922;-74
2024/01/03 00:45:22;;;;;;;;;;;;;;;9.60;79.29;98078.66;4975033;28;20025;-74
2024/01/03 00:47:47;;;;;;;;;;;;;;;9.68;78.21;98089.75;4973348;28;20330;-74
2024/01/03 00:50:13;;;;;;;;;;;;;;;9.58;79.35;98102.28;4970509;28;19922;-74
2024/01/03 00:52:42;;;;;;;;;;;;;;;9.52;79.48;98096.91;4972856;28;20290;-74
2024/01/03 00:55:08;;;;;;;;;;;;;;;9.59;79.57;98131.59;4970842;28;20430;-74
2024/01/03 00:57:33;;;;;;;;;;;;;;;9.57;78.64;98109.56;4973325;28;19988;-74
2024/01/03 00:59:58;;;;;;;;;;;;;;;9.59;78.63;98117.34;4956594;28;19922;-74
2024/01/03 01:02:24;;;;;;;;;;;;;;;9.63;78.51;98134.56;4956449;28;20047;-73
2024/01/03 01:04:49;;;;;;;;;;;;;;;9.59;78.42;98133.44;4960544;28;19926;-73
2024/01/03 01:07:14;;;;;;;;;;;;;;;9.56;78.23;98126.72;4961582;28;19925;-73
2024/01/03 01:09:39;;;;;;;;;;;;;;;9.55;78.31;98133.97;4976559;28;19922;-74
2024/01/03 01:12:06;;;;;;;;;;;;;;;9.59;76.67;98128.91;4978784;28;19918;-73
2024/01/03 01:14:31;;;;;;;;;;;;;;;9.65;76.12;98129.75;4979380;28;20367;-74
2024/01/03 01:16:56;;;;;;;;;;;;;;;9.61;76.24;98139.38;4977208;28;19929;-74
2024/01/03 01:19:22;;;;;;;;;;;;;;;9.57;76.37;98157.91;4977197;28;20017;-74
2024/01/03 01:21:47;;;;;;;;;;;;;;;9.55;76.14;98160.03;4977746;28;19918;-74
2024/01/03 01:24:23;;;;;;;;;;;;;;;9.59;75.85;98160.31;4975410;28;19922;-73
2024/01/03 01:26:48;;;;;;;;;;;;;;;9.59;75.98;98179.94;4977186;28;20342;-74
2024/01/03 01:29:14;;;;;;;;;;;;;;;9.68;75.38;98169.53;4975997;28;19930;-74
2024/01/03 01:31:40;;;;;;;;;;;;;;;9.57;75.60;98179.38;4976125;28;19926;-75
2024/01/03 01:34:05;;;;;;;;;;;;;;;9.61;75.58;98163.56;4976664;28;19926;-74
2024/01/03 01:36:30;;;;;;;;;;;;;;;9.56;75.24;98173.19;4979301;28;19922;-74
2024/01/03 01:38:59;;;;;;;;;;;;;;;9.58;75.36;98193.59;4975796;28;20319;-74
2024/01/03 01:41:24;;;;;;;;;;;;;;;9.52;75.53;98193.59;4999017;23;19973;-74
2024/01/03 01:43:49;;;;;;;;;;;;;;;9.49;75.93;98186.03;4972515;28;19929;-74
2024/01/03 01:46:14;;;;;;;;;;;;;;;9.53;75.71;98165.63;4994225;28;19989;-74
2024/01/03 01:48:43;;;;;;;;;;;;;;;9.52;75.20;98190.91;4977203;28;19928;-73
2024/01/03 01:51:09;;;;;;;;;;;;;;;9.52;75.66;98193.59;4978413;28;19925;-73
2024/01/03 01:53:34;;;;;;;;;;;;;;;9.45;76.61;98217.16;4977755;28;19964;-73
2024/01/03 01:55:59;;;;;;;;;;;;;;;9.49;76.44;98220.13;4995578;28;19922;-74
2024/01/03 01:58:24;;;;;;;;;;;;;;;9.51;77.14;98204.56;4995868;28;19932;-74
2024/01/03 02:00:50;;;;;;;;;;;;;;;9.42;77.24;98204.22;4995169;28;19918;-73
2024/01/03 02:03:15;;;;;;;;;;;;;;;9.47;77.26;98196.22;4994073;28;19941;-74
2024/01/03 02:05:40;;;;;;;;;;;;;;;9.47;77.16;98223.06;4977056;28;19922;-74
2024/01/03 02:08:08;;;;;;;;;;;;;;;9.41;77.57;98221.41;4994626;28;19925;-74
2024/01/03 02:10:33;;;;;;;;;;;;;;;9.49;76.54;98226.31;4976611;28;20385;-74
2024/01/03 02:12:59;;;;;;;;;;;;;;;9.45;76.82;98235.94;4995562;28;19918;-74
2024/01/03 02:15:24;;;;;;;;;;;;;;;9.45;77.25;98241.31;4993616;28;20374;-74
2024/01/03 02:17:49;;;;;;;;;;;;;;;9.41;77.57;98224.06;4990143;28;20374;-74
2024/01/03 02:20:15;;;;;;;;;;;;;;;9.48;78.18;98231.94;4974118;28;19932;-74
2024/01/03 02:22:40;;;;;;;;;;;;;;;9.42;78.27;98239.13;4977096;28;19932;-74
2024/01/03 02:25:10;;;;;;;;;;;;;;;9.42;78.62;98235.66;4994944;28;19929;-74
2024/01/03 02:27:35;;;;;;;;;;;;;;;9.40;78.46;98233.19;4995662;28;19926;-74
2024/01/03 02:30:01;;;;;;;;;;;;;;;9.38;78.44;98275.59;4995679;28;20086;-74
2024/01/03 02:32:26;;;;;;;;;;;;;;;9.42;77.75;98236.44;4996310;28;20362;-74
2024/01/03 02:34:54;;;;;;;;;;;;;;;9.41;78.53;98242.88;4984867;28;19925;-73
2024/01/03 02:37:22;;;;;;;;;;;;;;;9.41;78.21;98237.50;5010685;28;19981;-73
2024/01/03 02:39:47;;;;;;;;;;;;;;;9.36;78.54;98280.41;4990493;28;19926;-74
2024/01/03 02:42:12;;;;;;;;;;;;;;;9.38;77.75;98263.00;4996099;28;19965;-74
2024/01/03 02:44:37;;;;;;;;;;;;;;;9.44;77.29;98261.16;4994663;28;19968;-74
2024/01/03 02:47:03;;;;;;;;;;;;;;;9.39;77.49;98290.66;4994533;28;19926;-74
2024/01/03 02:49:28;;;;;;;;;;;;;;;9.38;78.13;98251.44;4993821;28;20417;-74
2024/01/03 02:51:53;;;;;;;;;;;;;;;9.39;77.73;98245.00;4976124;28;19922;-74
2024/01/03 02:54:18;;;;;;;;;;;;;;;9.37;78.15;98272.13;4984138;28;19985;-73
2024/01/03 02:56:44;;;;;;;;;;;;;;;9.27;79.26;98273.88;4992791;28;19937;-74
2024/01/03 02:59:09;;;;;;;;;;;;;;;9.31;78.92;98288.44;5002675;28;19916;-74
2024/01/03 03:01:34;;;;;;;;;;;;;;;9.25;78.98;98283.00;5013093;28;19922;-74
2024/01/03 03:03:59;;;;;;;;;;;;;;;9.22;79.22;98288.84;4999561;28;20393;-74
2024/01/03 03:06:24;;;;;;;;;;;;;;;9.24;78.50;98276.00;4996955;28;20370;-75
2024/01/03 03:08:50;;;;;;;;;;;;;;;9.34;77.85;98272.63;4994436;28;20709;-74
2024/01/03 03:11:18;;;;;;;;;;;;;;;9.39;77.36;98290.66;4995049;28;20289;-74
2024/01/03 03:13:43;;;;;;;;;;;;;;;9.44;78.15;98290.72;4980940;28;19998;-74
2024/01/03 03:16:08;;;;;;;;;;;;;;;9.36;79.05;98297.34;4993343;28;19925;-74
2024/01/03 03:18:34;;;;;;;;;;;;;;;9.40;78.99;98303.84;4994697;28;19952;-74
2024/01/03 03:21:00;;;;;;;;;;;;;;;9.33;80.11;98292.47;4995407;28;19980;-74
2024/01/03 03:23:25;;;;;;;;;;;;;;;9.33;80.42;98318.53;4993390;28;19929;-74
2024/01/03 03:25:50;;;;;;;;;;;;;;;9.28;80.45;98310.41;4995289;28;20586;-74
2024/01/03 03:28:16;;;;;;;;;;;;;;;9.30;80.86;98287.59;5008131;28;19926;-74
2024/01/03 03:30:41;;;;;;;;;;;;;;;9.33;81.28;98313.16;5009086;28;19957;-74
2024/01/03 03:33:06;;;;;;;;;;;;;;;9.28;81.31;98310.41;5001614;28;20016;-74
2024/01/03 03:35:31;;;;;;;;;;;;;;;9.24;81.29;98310.91;4998142;28;20601;-74
2024/01/03 03:37:57;;;;;;;;;;;;;;;9.22;82.39;98306.84;4994300;28;19922;-74
2024/01/03 03:40:23;;;;;;;;;;;;;;;9.25;82.36;98317.91;4993871;28;19928;-74
2024/01/03 03:42:49;;;;;;;;;;;;;;;9.21;82.64;98319.44;4983235;28;19953;-74
2024/01/03 03:45:14;;;;;;;;;;;;;;;9.17;83.72;98320.22;4992153;28;19988;-74
2024/01/03 03:47:39;;;;;;;;;;;;;;;9.08;86.52;98325.19;4994606;28;19976;-74
2024/01/03 03:50:05;;;;;;;;;;;;;;;8.99;87.86;98307.94;4995638;28;20789;-74
2024/01/03 03:52:30;;;;;;;;;;;;;;;8.88;89.66;98313.16;4995826;28;20322;-75
2024/01/03 03:54:55;;;;;;;;;;;;;;;8.94;88.79;98317.53;4997351;28;19953;-75
2024/01/03 03:57:20;;;;;;;;;;;;;;;8.89;89.03;98314.78;5004155;28;19922;-74
2024/01/03 03:59:45;;;;;;;;;;;;;;;8.92;88.70;98308.91;5013519;28;19941;-75
2024/01/03 04:02:11;;;;;;;;;;;;;;;8.98;88.37;98323.19;5006917;28;20001;-74
2024/01/03 04:04:36;;;;;;;;;;;;;;;8.97;88.23;98324.25;4996490;28;19933;-74
2024/01/03 04:07:01;;;;;;;;;;;;;;;8.94;88.48;98314.84;4996586;28;19964;-74
2024/01/03 04:09:26;;;;;;;;;;;;;;;8.90;90.49;98315.59;4993591;28;20354;-75
2024/01/03 04:11:52;;;;;;;;;;;;;;;8.60;96.11;98327.50;4994112;28;19933;-75
2024/01/03 04:14:17;;;;;;;;;;;;;;;8.42;98.49;98323.22;4995011;28;19922;-75
2024/01/03 04:16:42;;;;;;;;;;;;;;;8.35;99.36;98345.63;4993698;28;19924;-75
2024/01/03 04:19:08;;;;;;;;;;;;;;;8.39;99.52;98332.53;4992710;28;20004;-75
2024/01/03 04:21:33;;;;;;;;;;;;;;;8.37;99.44;98344.56;4993072;28;19966;-75
2024/01/03 04:23:59;;;;;;;;;;;;;;;8.38;100.00;98339.00;4991918;28;19918;-74
2024/01/03 04:26:24;;;;;;;;;;;;;;;8.48;98.21;98319.56;4993297;28;20329;-75
2024/01/03 04:28:50;;;;;;;;;;;;;;;8.60;96.11;98333.72;4992938;28;19918;-75
2024/01/03 04:31:15;;;;;;;;;;;;;;;8.65;95.91;98341.00;4992456;28;19926;-75
2024/01/03 04:33:40;;;;;;;;;;;;;;;8.65;94.65;98357.91;4974932;28;19918;-76
2024/01/03 04:36:05;;;;;;;;;;;;;;;8.64;95.42;98334.84;4992919;28;19925;-75
2024/01/03 04:38:31;;;;;;;;;;;;;;;8.62;96.63;98368.31;4991666;28;19925;-75
2024/01/03 04:40:56;;;;;;;;;;;;;;;8.64;96.52;98345.56;4991680;28;19922;-75
2024/01/03 04:43:22;;;;;;;;;;;;;;;8.55;97.96;98368.47;4993313;28;19922;-75
2024/01/03 04:45:47;;;;;;;;;;;;;;;8.64;98.34;98369.72;4992293;28;21579;-75
2024/01/03 04:48:13;;;;;;;;;;;;;;;8.59;98.68;98377.66;4991785;28;20320;-75
2024/01/03 04:50:38;;;;;;;;;;;;;;;8.59;99.04;98369.63;4993051;28;19922;-75
2024/01/03 04:53:03;;;;;;;;;;;;;;;8.57;99.16;98374.41;4992111;28;19975;-75
2024/01/03 04:55:29;;;;;;;;;;;;;;;8.51;100.00;98375.38;4991954;28;19921;-75
2024/01/03 04:57:57;;;;;;;;;;;;;;;8.56;99.31;98380.84;4992848;28;19945;-75
2024/01/03 05:00:23;;;;;;;;;;;;;;;8.64;99.68;98385.81;4992509;28;19952;-75
2024/01/03 05:02:49;;;;;;;;;;;;;;;8.57;99.53;98377.09;4985974;23;19926;-75
2024/01/03 05:05:15;;;;;;;;;;;;;;;8.68;99.22;98378.06;4977344;28;19933;-75
2024/01/03 05:07:40;;;;;;;;;;;;;;;8.60;99.67;98391.88;4973990;28;19922;-75
2024/01/03 05:10:09;;;;;;;;;;;;;;;8.67;100.00;98375.63;4983918;28;19926;-75
2024/01/03 05:12:35;;;;;;;;;;;;;;;8.74;99.99;98376.28;4988863;28;19928;-73
2024/01/03 05:15:00;;;;;;;;;;;;;;;8.54;100.00;98385.63;4992451;28;19922;-73
2024/01/03 05:17:28;;;;;;;;;;;;;;;8.59;100.00;98383.03;4991899;28;20315;-78
2024/01/03 05:19:55;;;;;;;;;;;;;;;8.62;100.00;98374.50;4992833;28;20004;-76
2024/01/03 05:22:20;;;;;;;;;;;;;;;8.61;100.00;98372.88;4990437;28;20013;-76
2024/01/03 05:24:45;;;;;;;;;;;;;;;8.45;100.00;98385.19;4978193;28;20456;-76
2024/01/03 05:27:10;;;;;;;;;;;;;;;8.51;100.00;98370.03;4982772;28;20373;-76
2024/01/03 05:29:36;;;;;;;;;;;;;;;8.49;100.00;98374.81;4992170;28;20417;-76
2024/01/03 05:32:01;;;;;;;;;;;;;;;8.21;100.00;98389.91;4989338;28;19925;-75
2024/01/03 05:34:29;;;;;;;;;;;;;;;8.15;100.00;98390.84;4975825;28;20290;-76
2024/01/03 05:36:54;;;;;;;;;;;;;;;8.06;100.00;98392.31;4991670;28;19921;-75
2024/01/03 05:39:19;;;;;;;;;;;;;;;7.92;100.00;98375.72;4992794;28;20254;-75
2024/01/03 05:41:44;;;;;;;;;;;;;;;7.86;100.00;98388.22;4993575;28;19972;-76
2024/01/03 05:44:10;;;;;;;;;;;;;;;7.82;100.00;98397.78;4992529;28;19969;-76
2024/01/03 05:46:35;;;;;;;;;;;;;;;7.91;100.00;98409.75;4992430;28;19957;-76
2024/01/03 05:49:00;;;;;;;;;;;;;;;7.86;100.00;98399.72;4992734;28;20440;-76
2024/01/03 05:51:26;;;;;;;;;;;;;;;7.68;100.00;98402.59;4980946;28;19925;-77
2024/01/03 05:53:51;;;;;;;;;;;;;;;7.77;100.00;98386.97;4995649;28;19929;-77
2024/01/03 05:56:16;;;;;;;;;;;;;;;7.81;100.00;98410.38;4996760;28;19921;-77
2024/01/03 05:58:42;;;;;;;;;;;;;;;7.69;100.00;98415.78;4994951;28;19936;-77
2024/01/03 06:01:07;;;;;;;;;;;;;;;7.65;100.00;98403.91;4995979;28;19918;-76
2024/01/03 06:06:00;;;;;;;;;;;;;;;7.38;100.00;98404.47;4973579;28;19926;-77
2024/01/03 06:08:32;;;;;;;;;;;;;;;7.44;100.00;98392.78;4958596;28;19926;-77
2024/01/03 06:10:57;;;;;;;;;;;;;;;7.48;100.00;98397.66;4977141;28;19926;-77
2024/01/03 06:13:22;;;;;;;;;;;;;;;7.49;100.00;98389.41;4976371;28;19917;-77
2024/01/03 06:15:47;;;;;;;;;;;;;;;7.52;100.00;98394.28;4976835;28;19940;-77
2024/01/03 06:18:13;;;;;;;;;;;;;;;7.47;100.00;98423.66;4978606;28;19946;-77
2024/01/03 06:20:38;;;;;;;;;;;;;;;7.46;100.00;98422.00;4977783;28;19922;-77
2024/01/03 06:23:03;;;;;;;;;;;;;;;7.51;100.00;98413.25;4980611;28;19941;-77
2024/01/03 06:25:31;;;;;;;;;;;;;;;7.69;100.00;98415.78;4997410;28;19922;-77
2024/01/03 06:27:56;;;;;;;;;;;;;;;7.68;100.00;98427.53;4990288;28;19918;-77
2024/01/03 06:30:21;;;;;;;;;;;;;;;7.64;100.00;98426.38;4977569;28;19944;-77
2024/01/03 06:32:46;;;;;;;;;;;;;;;7.79;100.00;98417.00;4976365;28;19918;-77
2024/01/03 06:35:11;;;;;;;;;;;;;;;7.71;100.00;98419.03;4976983;28;20005;-76
2024/01/03 06:37:37;;;;;;;;;;;;;;;7.54;100.00;98423.50;4976464;28;19983;-77
2024/01/03 06:40:05;;;;;;;;;;;;;;;7.60;100.00;98422.53;4975896;28;19919;-76
2024/01/03 06:42:30;;;;;;;;;;;;;;;7.55;100.00;98423.25;4975708;28;19965;-77
2024/01/03 06:44:56;;;;;;;;;;;;;;;7.54;100.00;98436.88;4976017;28;19930;-76
2024/01/03 06:47:24;;;;;;;;;;;;;;;7.64;100.00;98439.75;4976214;28;19918;-76
2024/01/03 06:49:49;;;;;;;;;;;;;;;7.66;100.00;98432.31;4988907;28;19926;-77
2024/01/03 06:52:14;;;;;;;;;;;;;;;7.64;100.00;98412.19;4996182;28;20330;-76
2024/01/03 06:54:39;;;;;;;;;;;;;;;7.68;100.00;98430.22;4997403;28;19913;-76
2024/01/03 06:57:05;;;;;;;;;;;;;;;7.59;100.00;98429.78;5004880;28;20409;-77
2024/01/03 06:59:33;;;;;;;;;;;;;;;7.59;100.00;98426.25;4977966;28;19922;-77
2024/01/03 07:01:59;;;;;;;;;;;;;;;7.64;100.00;98423.69;4976135;28;20298;-77
2024/01/03 07:04:26;;;;;;;;;;;;;;;7.52;100.00;98422.94;4975631;28;19923;-78
2024/01/03 07:06:53;;;;;;;;;;;;;;;7.56;100.00;98413.38;4975233;28;19949;-77
2024/01/03 07:09:18;;;;;;;;;;;;;;;7.50;100.00;98430.38;4975252;28;20286;-77
2024/01/03 07:11:43;;;;;;;;;;;;;;;7.52;100.00;98415.69;4981623;28;19936;-77
2024/01/03 07:14:12;;;;;;;;;;;;;;;7.58;100.00;98419.31;4994982;28;19965;-77
2024/01/03 07:19:28;;;;;;;;;;;;;;;7.52;100.00;98431.75;4991844;23;19937;-77
2024/01/03 07:21:53;;;;;;;;;;;;;;;7.52;100.00;98428.28;4988239;28;19922;-77
2024/01/03 07:24:30;;;;;;;;;;;;;;;7.51;100.00;98432.00;4994175;28;19919;-77
2024/01/03 07:27:07;;;;;;;;;;;;;;;7.66;100.00;98436.88;4980150;28;19993;-77
2024/01/03 07:29:51;;;;;;;;;;;;;;;7.69;100.00;98417.63;4974769;28;19918;-77
2024/01/03 07:32:16;;;;;;;;;;;;;;;7.61;100.00;98439.44;4976593;28;19977;-77
2024/01/03 07:34:42;;;;;;;;;;;;;;;7.51;100.00;98440.84;4975781;28;19974;-78
2024/01/03 07:37:25;;;;;;;;;;;;;;;7.61;100.00;98448.25;4975436;28;19918;-78
2024/01/03 07:39:50;;;;;;;;;;;;;;;7.56;100.00;98446.31;4976520;28;20339;-77
2024/01/03 07:42:22;;;;;;;;;;;;;;;7.50;100.00;98441.88;4976982;28;20382;-78
2024/01/03 07:44:50;;;;;;;;;;;;;;;7.47;100.00;98414.78;4990407;28;19922;-77
2024/01/03 07:47:18;;;;;;;;;;;;;;;7.48;100.00;98445.84;4998880;28;19972;-77
2024/01/03 07:49:59;;;;;;;;;;;;;;;7.46;100.00;98442.59;4997918;28;19928;-77
2024/01/03 07:52:28;;;;;;;;;;;;;;;7.36;100.00;98456.59;5006467;28;19946;-77
2024/01/03 07:55:12;;;;;;;;;;;;;;;7.35;100.00;98453.09;5013336;28;19942;-78
2024/01/03 07:57:53;;;;;;;;;;;;;;;7.39;100.00;98459.63;5005104;28;19968;-77
2024/01/03 08:00:24;;;;;;;;;;;;;;;7.21;100.00;98478.50;4994323;28;19964;-77
2024/01/03 08:02:58;;;;;;;;;;;;;;;7.17;100.00;98474.66;4996346;28;19944;-77
2024/01/03 08:05:23;;;;;;;;;;;;;;;7.24;100.00;98472.66;4994219;28;20254;-77
2024/01/03 08:07:49;;;;;;;;;;;;;;;7.15;100.00;98480.22;4995919;28;19926;-77
2024/01/03 08:10:24;;;;;;;;;;;;;;;7.02;100.00;98480.44;4995902;28;19921;-77
2024/01/03 08:12:52;;;;;;;;;;;;;;;7.02;100.00;98470.59;4977992;28;19965;-77
2024/01/03 08:15:21;;;;;;;;;;;;;;;6.97;100.00;98483.84;4973575;28;19918;-77
2024/01/03 08:17:46;;;;;;;;;;;;;;;7.03;100.00;98488.25;4974810;28;19949;-77
2024/01/03 08:20:14;;;;;;;;;;;;;;;7.10;100.00;98464.88;4973242;28;20338;-78
2024/01/03 08:22:39;;;;;;;;;;;;;;;7.12;100.00;98484.19;4974295;28;20016;-77
2024/01/03 08:25:05;;;;;;;;;;;;;;;7.08;100.00;98469.63;4980328;28;20012;-77
2024/01/03 08:27:32;;;;;;;;;;;;;;;6.98;100.00;98488.94;4992985;28;19957;-77
2024/01/03 08:29:57;;;;;;;;;;;;;;;7.01;100.00;98487.69;4993282;28;19929;-77
2024/01/03 08:32:25;;;;;;;;;;;;;;;7.00;100.00;98494.06;4993575;28;20387;-77
2024/01/03 08:34:51;;;;;;;;;;;;;;;6.93;100.00;98501.38;4975761;28;19918;-77
2024/01/03 08:37:16;;;;;;;;;;;;;;;6.97;100.00;98495.34;4992909;28;19925;-77
2024/01/03 08:39:41;;;;;;;;;;;;;;;6.95;100.00;98507.31;4992492;28;19917;-77
2024/01/03 08:42:06;;;;;;;;;;;;;;;6.98;100.00;98501.50;4992838;28;19928;-77
2024/01/03 08:44:31;;;;;;;;;;;;;;;7.07;100.00;98502.78;4993373;28;19918;-77
2024/01/03 08:46:58;;;;;;;;;;;;;;;7.04;100.00;98484.53;4992951;28;19920;-77
2024/01/03 08:49:23;;;;;;;;;;;;;;;7.08;100.00;98499.06;4993373;28;20005;-78
2024/01/03 08:51:48;;;;;;;;;;;;;;;7.14;100.00;98510.72;4993212;28;19956;-77
2024/01/03 08:54:14;;;;;;;;;;;;;;;7.01;100.00;98511.75;4991846;28;20040;-77
2024/01/03 08:56:39;;;;;;;;;;;;;;;7.01;100.00;98514.44;4985594;28;20351;-77
2024/01/03 08:59:05;;;;;;;;;;;;;;;7.08;100.00;98519.66;4973787;28;20389;-77
2024/01/03 09:01:32;;;;;;;;;;;;;;;7.16;100.00;98515.81;4971872;28;20283;-77
2024/01/03 09:03:57;;;;;;;;;;;;;;;7.12;100.00;98529.66;4973546;28;19922;-77
2024/01/03 09:06:25;;;;;;;;;;;;;;;7.07;100.00;98531.41;4972918;28;20054;-77
2024/01/03 09:08:54;;;;;;;;;;;;;;;7.21;100.00;98526.66;4972993;28;19925;-77
2024/01/03 09:11:23;;;;;;;;;;;;;;;7.12;100.00;98524.31;4963784;28;19925;-77
2024/01/03 09:13:49;;;;;;;;;;;;;;;7.35;100.00;98522.69;4992343;28;20034;-77
2024/01/03 09:16:19;;;;;;;;;;;;;;;7.39;100.00;98536.41;4992240;28;19921;-77
2024/01/03 09:18:45;;;;;;;;;;;;;;;7.41;100.00;98545.84;4992288;28;19922;-77
2024/01/03 09:21:10;;;;;;;;;;;;;;;7.38;100.00;98519.56;4992372;28;19917;-77
2024/01/03 09:23:38;;;;;;;;;;;;;;;7.33;100.00;98548.88;4978563;28;19926;-77
2024/01/03 09:26:04;;;;;;;;;;;;;;;7.28;100.00;98549.56;4977420;28;19977;-77
2024/01/03 09:28:29;;;;;;;;;;;;;;;7.34;100.00;98536.28;4976239;28;19918;-77
2024/01/03 09:30:57;;;;;;;;;;;;;;;7.42;100.00;98544.78;4980066;28;20365;-77
2024/01/03 09:33:23;;;;;;;;;;;;;;;7.32;100.00;98555.28;4997025;28;19985;-77
2024/01/03 09:35:48;;;;;;;;;;;;;;;7.37;100.00;98552.72;4995261;28;19989;-77
2024/01/03 09:38:13;;;;;;;;;;;;;;;7.47;100.00;98556.66;4996753;28;19918;-77
2024/01/03 09:40:40;;;;;;;;;;;;;;;7.51;100.00;98555.16;4995515;28;19929;-77
2024/01/03 09:43:05;;;;;;;;;;;;;;;7.51;100.00;98558.63;4995985;28;19964;-77
2024/01/03 09:45:30;;;;;;;;;;;;;;;7.72;100.00;98557.22;4978158;28;19998;-77
2024/01/03 09:47:57;;;;;;;;;;;;;;;7.67;100.00;98562.47;4995449;28;20394;-77
2024/01/03 09:50:22;;;;;;;;;;;;;;;7.63;100.00;98563.97;4995543;28;19917;-77
2024/01/03 09:52:47;;;;;;;;;;;;;;;7.64;100.00;98557.59;4996218;28;19945;-77
2024/01/03 09:55:13;;;;;;;;;;;;;;;7.73;100.00;98577.63;4979325;28;20285;-77
2024/01/03 09:57:40;;;;;;;;;;;;;;;7.55;100.00;98569.72;4995340;28;19918;-77
2024/01/03 10:00:07;;;;;;;;;;;;;;;7.51;100.00;98563.19;4993540;28;19922;-77
2024/01/03 10:02:32;;;;;;;;;;;;;;;7.68;100.00;98574.81;4977864;28;20054;-76
2024/01/03 10:04:57;;;;;;;;;;;;;;;7.68;100.00;98580.16;4976678;28;19922;-77
2024/01/03 10:07:30;;;;;;;;;;;;;;;7.61;100.00;98592.06;4976600;28;19925;-77
2024/01/03 10:09:56;;;;;;;;;;;;;;;7.46;100.00;98576.44;4977585;28;20312;-77
2024/01/03 10:12:21;;;;;;;;;;;;;;;7.61;100.00;98584.81;4976703;28;19949;-77
2024/01/03 10:14:47;;;;;;;;;;;;;;;7.53;100.00;98582.50;4977947;28;19918;-77
2024/01/03 10:17:13;;;;;;;;;;;;;;;7.38;100.00;98567.72;4979547;28;19972;-76
2024/01/03 10:19:38;;;;;;;;;;;;;;;7.33;100.00;98582.84;4980982;28;20007;-76
2024/01/03 10:22:03;;;;;;;;;;;;;;;7.33;100.00;98583.66;4997112;28;20338;-77
2024/01/03 10:24:29;;;;;;;;;;;;;;;7.20;100.00;98583.91;4970535;28;19953;-77
2024/01/03 10:27:07;;;;;;;;;;;;;;;7.29;100.00;98582.50;4975199;28;19922;-77
2024/01/03 10:29:33;;;;;;;;;;;;;;;7.24;100.00;98571.66;4958859;28;20020;-77
2024/01/03 10:31:58;;;;;;;;;;;;;;;7.22;100.00;98576.44;4959911;28;19984;-77
2024/01/03 10:34:24;;;;;;;;;;;;;;;7.36;100.00;98566.31;4975867;28;19918;-77
2024/01/03 10:36:50;;;;;;;;;;;;;;;7.47;100.00;98562.00;4975753;28;20558;-77
2024/01/03 10:39:16;;;;;;;;;;;;;;;7.48;100.00;98572.50;4959502;28;19924;-77
2024/01/03 10:41:42;;;;;;;;;;;;;;;7.45;100.00;98575.66;4976013;28;20012;-77
2024/01/03 10:44:11;;;;;;;;;;;;;;;7.43;100.00;98578.53;4976529;28;19926;-77
2024/01/03 10:46:36;;;;;;;;;;;;;;;7.57;100.00;98579.13;4991540;28;19929;-77
2024/01/03 10:49:03;;;;;;;;;;;;;;;7.68;100.00;98580.16;4997339;28;19918;-77
2024/01/03 10:51:30;;;;;;;;;;;;;;;7.73;100.00;98577.63;4998472;28;19910;-77
2024/01/03 10:53:58;;;;;;;;;;;;;;;7.73;100.00;98580.28;5003351;28;19922;-77
2024/01/03 10:56:23;;;;;;;;;;;;;;;7.87;100.00;98572.00;4994955;28;20620;-77
2024/01/03 10:58:49;;;;;;;;;;;;;;;7.92;100.00;98584.69;4995147;28;19922;-76
2024/01/03 11:01:16;;;;;;;;;;;;;;;7.99;100.00;98580.03;4980631;28;20027;-75
2024/01/03 11:03:48;;;;;;;;;;;;;;;7.96;100.00;98588.53;4958938;28;20018;-75
2024/01/03 11:06:32;;;;;;;;;;;;;;;7.96;100.00;98583.16;4958333;28;19918;-75
2024/01/03 11:08:58;;;;;;;;;;;;;;;8.12;100.00;98582.44;4975740;28;19918;-76
2024/01/03 11:11:33;;;;;;;;;;;;;;;8.16;100.00;98588.13;4958435;28;19925;-76
2024/01/03 11:13:59;;;;;;;;;;;;;;;8.23;100.00;98594.16;4975022;28;19945;-76
2024/01/03 11:16:35;;;;;;;;;;;;;;;8.19;100.00;98596.53;4977083;28;19922;-76
2024/01/03 11:19:00;;;;;;;;;;;;;;;8.19;100.00;98593.84;4984563;28;19937;-78
2024/01/03 11:21:30;;;;;;;;;;;;;;;8.27;100.00;98608.72;5131145;23;19905;-77
2024/01/03 11:23:56;;;;;;;;;;;;;;;8.37;100.00;98596.56;5186398;23;19925;-76
2024/01/03 11:26:43;;;;;;;;;;;;;;;8.39;100.00;98599.84;5014286;28;20240;-77
2024/01/03 11:29:08;;;;;;;;;;;;;;;8.46;100.00;98595.16;5013724;28;19975;-77
2024/01/03 11:32:02;;;;;;;;;;;;;;;8.44;100.00;98598.06;4997884;28;20293;-77
2024/01/03 11:34:40;;;;;;;;;;;;;;;8.40;100.00;98585.38;5010967;28;19960;-77
2024/01/03 11:37:14;;;;;;;;;;;;;;;8.50;100.00;98599.00;5015846;28;19933;-77
2024/01/03 11:39:42;;;;;;;;;;;;;;;8.34;100.00;98604.03;5018789;28;19944;-77
2024/01/03 11:42:08;;;;;;;;;;;;;;;8.29;100.00;98590.56;5019042;28;19921;-76
2024/01/03 11:44:33;;;;;;;;;;;;;;;8.41;100.00;98587.00;5028088;28;19925;-77
2024/01/03 11:47:02;;;;;;;;;;;;;;;8.56;100.00;98581.16;5037740;28;19910;-76
2024/01/03 11:49:28;;;;;;;;;;;;;;;8.74;100.00;98585.50;5027185;28;19971;-76
2024/01/03 11:51:54;;;;;;;;;;;;;;;8.92;100.00;98596.00;5017636;28;19917;-76
2024/01/03 11:54:20;;;;;;;;;;;;;;;8.88;100.00;98589.50;5017876;28;19924;-77
2024/01/03 11:56:45;;;;;;;;;;;;;;;8.98;100.00;98588.88;5014041;28;19918;-77
2024/01/03 11:59:10;;;;;;;;;;;;;;;8.65;100.00;98551.00;5014609;28;20317;-77
2024/01/03 12:01:36;;;;;;;;;;;;;;;8.73;100.00;98589.22;5015772;28;19924;-76
2024/01/03 12:04:12;;;;;;;;;;;;;;;8.59;100.00;98578.81;5013203;28;19913;-77
2024/01/03 12:06:37;;;;;;;;;;;;;;;8.64;100.00;98562.81;5013633;28;19930;-77
2024/01/03 12:09:03;;;;;;;;;;;;;;;8.72;100.00;98566.97;5014442;28;20044;-77
2024/01/03 12:11:28;;;;;;;;;;;;;;;8.79;100.00;98572.97;4995064;28;19918;-77
2024/01/03 12:13:53;;;;;;;;;;;;;;;8.97;100.00;98570.34;5014274;28;19960;-77
2024/01/03 12:16:18;;;;;;;;;;;;;;;9.03;100.00;98567.50;5033378;28;19924;-77
2024/01/03 12:18:47;;;;;;;;;;;;;;;9.04;99.92;98568.28;5031118;28;20405;-77
2024/01/03 12:21:12;;;;;;;;;;;;;;;9.23;98.56;98564.31;5032341;28;20015;-77
2024/01/03 12:23:38;;;;;;;;;;;;;;;9.19;98.06;98560.47;5033206;28;19972;-77
2024/01/03 12:26:12;;;;;;;;;;;;;;;9.02;97.59;98562.34;5032063;28;19925;-77
2024/01/03 12:28:37;;;;;;;;;;;;;;;8.92;97.83;98553.09;5026526;28;19927;-76
2024/01/03 12:31:04;;;;;;;;;;;;;;;8.86;98.60;98556.72;5013683;28;19918;-77
2024/01/03 12:33:33;;;;;;;;;;;;;;;8.84;99.26;98558.84;5006535;28;19928;-76
2024/01/03 12:36:03;;;;;;;;;;;;;;;8.87;100.00;98555.66;5010934;28;19930;-76
2024/01/03 12:38:31;;;;;;;;;;;;;;;9.00;99.65;98556.44;5012582;28;19917;-76
2024/01/03 12:40:56;;;;;;;;;;;;;;;8.78;100.00;98549.09;5012719;28;19925;-77
2024/01/03 12:43:21;;;;;;;;;;;;;;;8.79;100.00;98554.19;5012554;28;19917;-77
2024/01/03 12:45:46;;;;;;;;;;;;;;;8.73;100.00;98540.94;5012264;28;19917;-77
2024/01/03 12:48:12;;;;;;;;;;;;;;;8.84;100.00;98523.97;5012634;28;19932;-77
2024/01/03 12:50:38;;;;;;;;;;;;;;;8.65;100.00;98537.59;5012364;28;20365;-77
2024/01/03 12:53:03;;;;;;;;;;;;;;;8.59;100.00;98540.44;5012448;28;19929;-75